createdAt,value
2018-08-12T00:01:14.337Z,14.20
2018-08-12T00:03:41.597Z,14.10
2018-08-12T00:06:08.894Z,14.30
2018-08-12T00:08:36.220Z,14.10
2018-08-12T00:11:03.603Z,14.00
2018-08-12T00:13:30.927Z,14.00
2018-08-12T00:15:58.228Z,14.10
2018-08-12T00:18:25.551Z,13.90
2018-08-12T00:20:52.818Z,13.90
2018-08-12T00:23:21.586Z,13.70
2018-08-12T00:25:48.904Z,13.70
2018-08-12T00:28:16.223Z,13.70
2018-08-12T00:30:44.328Z,13.70
2018-08-12T00:33:11.558Z,13.70
2018-08-12T00:35:38.834Z,13.60
2018-08-12T00:38:06.082Z,13.50
2018-08-12T00:40:33.366Z,13.60
2018-08-12T00:43:00.688Z,13.40
2018-08-12T00:45:27.951Z,13.40
2018-08-12T00:47:55.230Z,13.00
2018-08-12T00:50:22.503Z,13.30
2018-08-12T00:52:49.872Z,13.20
2018-08-12T00:55:17.574Z,13.20
2018-08-12T00:57:45.723Z,13.10
2018-08-12T01:00:18.022Z,13.20
2018-08-12T01:02:45.312Z,13.10
2018-08-12T01:05:13.968Z,13.10
2018-08-12T01:07:41.771Z,13.10
2018-08-12T01:10:09.933Z,13.00
2018-08-12T01:12:37.302Z,13.20
2018-08-12T01:15:08.135Z,12.90
2018-08-12T01:17:35.403Z,12.50
2018-08-12T01:20:03.419Z,12.70
2018-08-12T01:22:30.687Z,12.80
2018-08-12T01:24:57.962Z,12.70
2018-08-12T01:27:25.211Z,12.70
2018-08-12T01:29:52.491Z,12.70
2018-08-12T01:32:19.808Z,13.30
2018-08-12T01:34:47.063Z,12.70
2018-08-12T01:37:14.352Z,12.60
2018-08-12T01:39:41.655Z,12.60
2018-08-12T01:42:08.883Z,11.30
2018-08-12T01:44:36.155Z,12.50
2018-08-12T01:47:03.439Z,12.50
2018-08-12T01:49:30.730Z,12.50
2018-08-12T01:51:57.990Z,12.50
2018-08-12T01:54:25.268Z,12.50
2018-08-12T01:56:52.519Z,12.50
2018-08-12T01:59:19.802Z,12.50
2018-08-12T02:01:47.060Z,12.50
2018-08-12T02:04:14.336Z,12.50
2018-08-12T02:06:41.612Z,12.40
2018-08-12T02:09:10.047Z,12.50
2018-08-12T02:11:37.301Z,12.30
2018-08-12T02:14:04.864Z,12.20
2018-08-12T02:16:32.138Z,12.20
2018-08-12T02:18:59.402Z,12.10
2018-08-12T02:21:26.679Z,12.00
2018-08-12T02:23:53.985Z,12.00
2018-08-12T02:26:21.258Z,12.00
2018-08-12T02:28:48.567Z,11.90
2018-08-12T02:31:15.851Z,11.90
2018-08-12T02:33:43.075Z,11.80
2018-08-12T02:36:10.359Z,10.80
2018-08-12T02:38:37.611Z,11.80
2018-08-12T02:41:04.863Z,11.70
2018-08-12T02:43:32.075Z,11.70
2018-08-12T02:45:59.328Z,11.70
2018-08-12T02:48:26.623Z,11.70
2018-08-12T02:50:54.496Z,11.60
2018-08-12T02:53:21.745Z,10.80
2018-08-12T02:55:50.943Z,12.70
2018-08-12T02:58:18.822Z,11.90
2018-08-12T03:00:46.070Z,11.30
2018-08-12T03:03:13.312Z,11.40
2018-08-12T03:05:40.670Z,11.40
2018-08-12T03:08:07.984Z,11.40
2018-08-12T03:10:35.234Z,11.40
2018-08-12T03:13:02.475Z,11.40
2018-08-12T03:15:29.771Z,11.40
2018-08-12T03:17:57.035Z,11.40
2018-08-12T03:20:24.300Z,11.40
2018-08-12T03:22:51.543Z,11.40
2018-08-12T03:25:18.792Z,11.40
2018-08-12T03:27:46.062Z,11.30
2018-08-12T03:30:13.288Z,11.30
2018-08-12T03:32:40.952Z,10.90
2018-08-12T03:35:08.238Z,11.20
2018-08-12T03:37:35.510Z,10.50
2018-08-12T03:40:03.640Z,10.90
2018-08-12T03:42:31.881Z,11.10
2018-08-12T03:44:59.138Z,11.10
2018-08-12T03:47:26.411Z,11.00
2018-08-12T03:49:53.729Z,11.10
2018-08-12T03:52:20.984Z,11.10
2018-08-12T03:54:48.223Z,11.50
2018-08-12T03:57:15.483Z,10.90
2018-08-12T03:59:42.771Z,11.00
2018-08-12T04:02:10.078Z,10.10
2018-08-12T04:04:37.463Z,11.00
2018-08-12T04:07:04.759Z,10.90
2018-08-12T04:09:32.011Z,11.00
2018-08-12T04:11:59.278Z,10.90
2018-08-12T04:14:26.548Z,10.90
2018-08-12T04:16:58.363Z,10.90
2018-08-12T04:19:25.937Z,10.90
2018-08-12T04:21:53.147Z,10.90
2018-08-12T04:24:20.406Z,11.00
2018-08-12T04:26:47.643Z,11.00
2018-08-12T04:29:14.883Z,11.00
2018-08-12T04:31:42.212Z,11.00
2018-08-12T04:34:09.487Z,11.00
2018-08-12T04:36:36.846Z,10.50
2018-08-12T04:39:07.346Z,10.40
2018-08-12T04:41:34.557Z,11.10
2018-08-12T04:44:01.811Z,11.00
2018-08-12T04:46:29.046Z,11.20
2018-08-12T04:48:56.282Z,11.30
2018-08-12T04:51:23.555Z,11.30
2018-08-12T04:53:50.819Z,11.20
2018-08-12T04:56:18.057Z,12.40
2018-08-12T04:58:45.312Z,12.20
2018-08-12T05:01:12.619Z,11.40
2018-08-12T05:03:39.854Z,11.40
2018-08-12T05:06:07.207Z,10.70
2018-08-12T05:08:34.463Z,11.40
2018-08-12T05:11:01.731Z,11.30
2018-08-12T05:13:29.000Z,11.10
2018-08-12T05:15:56.253Z,11.40
2018-08-12T05:18:23.534Z,11.50
2018-08-12T05:20:50.803Z,11.60
2018-08-12T05:23:18.056Z,11.70
2018-08-12T05:25:45.284Z,11.80
2018-08-12T05:28:12.544Z,12.10
2018-08-12T05:30:39.778Z,11.90
2018-08-12T05:33:06.991Z,12.10
2018-08-12T05:35:34.285Z,12.20
2018-08-12T05:39:16.066Z,12.30
2018-08-12T05:41:43.566Z,12.30
2018-08-12T05:44:10.842Z,13.30
2018-08-12T05:46:38.090Z,12.60
2018-08-12T05:49:05.418Z,12.80
2018-08-12T05:51:32.736Z,12.80
2018-08-12T05:53:59.966Z,13.00
2018-08-12T05:56:27.211Z,12.90
2018-08-12T05:58:54.542Z,13.00
2018-08-12T06:01:21.859Z,13.10
2018-08-12T06:03:49.195Z,13.30
2018-08-12T06:06:16.480Z,13.40
2018-08-12T06:08:43.858Z,13.60
2018-08-12T06:11:11.130Z,14.20
2018-08-12T06:13:38.470Z,13.90
2018-08-12T06:16:05.791Z,14.10
2018-08-12T06:18:33.052Z,14.20
2018-08-12T06:21:00.348Z,14.40
2018-08-12T06:23:27.605Z,14.10
2018-08-12T06:25:54.834Z,14.80
2018-08-12T06:28:22.091Z,15.80
2018-08-12T06:30:49.335Z,15.10
2018-08-12T06:33:16.639Z,15.40
2018-08-12T06:35:43.910Z,15.70
2018-08-12T06:38:11.213Z,15.90
2018-08-12T06:40:38.622Z,16.20
2018-08-12T06:43:05.987Z,17.10
2018-08-12T06:45:33.344Z,15.10
2018-08-12T06:48:00.627Z,17.10
2018-08-12T06:50:27.933Z,17.30
2018-08-12T06:52:55.196Z,17.60
2018-08-12T06:55:22.446Z,17.90
2018-08-12T06:57:49.706Z,18.80
2018-08-12T07:00:18.027Z,18.30
2018-08-12T07:02:45.340Z,18.60
2018-08-12T07:05:12.687Z,18.90
2018-08-12T07:07:39.963Z,19.30
2018-08-12T07:10:12.304Z,19.70
2018-08-12T07:12:40.017Z,20.00
2018-08-12T07:15:09.442Z,20.30
2018-08-12T07:17:36.700Z,20.60
2018-08-12T07:20:05.877Z,21.00
2018-08-12T07:22:33.149Z,21.20
2018-08-12T07:25:00.444Z,21.50
2018-08-12T07:27:27.699Z,21.60
2018-08-12T07:29:54.983Z,21.90
2018-08-12T07:32:22.264Z,22.30
2018-08-12T07:34:49.511Z,22.60
2018-08-12T07:37:16.850Z,22.00
2018-08-12T07:39:44.127Z,23.10
2018-08-12T07:42:11.438Z,23.20
2018-08-12T07:44:38.741Z,23.20
2018-08-12T07:47:06.039Z,23.00
2018-08-12T07:49:33.307Z,23.30
2018-08-12T07:52:00.543Z,23.80
2018-08-12T07:54:27.814Z,24.20
2018-08-12T07:56:55.079Z,24.60
2018-08-12T07:59:22.315Z,25.30
2018-08-12T08:01:49.663Z,25.90
2018-08-12T08:04:16.910Z,26.30
2018-08-12T08:06:44.269Z,26.80
2018-08-12T08:09:12.056Z,27.30
2018-08-12T08:11:39.754Z,26.10
2018-08-12T08:14:07.086Z,28.40
2018-08-12T08:16:34.466Z,28.90
2018-08-12T08:19:01.760Z,29.20
2018-08-12T08:21:29.076Z,29.50
2018-08-12T08:23:56.504Z,29.60
2018-08-12T08:26:23.823Z,30.30
2018-08-12T08:28:51.112Z,30.50
2018-08-12T08:31:18.496Z,30.70
2018-08-12T08:33:45.654Z,31.00
2018-08-12T08:36:12.959Z,30.80
2018-08-12T08:38:40.237Z,30.80
2018-08-12T08:41:07.535Z,31.10
2018-08-12T08:43:34.827Z,31.80
2018-08-12T08:46:02.126Z,32.40
2018-08-12T08:48:30.203Z,33.00
2018-08-12T08:50:57.467Z,32.80
2018-08-12T08:53:24.791Z,33.20
2018-08-12T08:58:19.671Z,33.50
2018-08-12T09:00:46.939Z,34.20
2018-08-12T09:03:14.200Z,34.70
2018-08-12T09:05:41.746Z,35.10
2018-08-12T09:08:09.169Z,35.50
2018-08-12T09:10:36.392Z,35.30
2018-08-12T09:13:03.751Z,35.70
2018-08-12T09:15:31.115Z,35.60
2018-08-12T09:17:58.379Z,33.90
2018-08-12T09:20:25.694Z,35.10
2018-08-12T09:22:52.989Z,36.00
2018-08-12T09:25:20.261Z,36.80
2018-08-12T09:27:48.474Z,37.30
2018-08-12T09:30:18.007Z,37.80
2018-08-12T09:32:45.976Z,38.00
2018-08-12T09:35:14.581Z,38.40
2018-08-12T09:37:41.890Z,37.60
2018-08-12T09:40:18.395Z,37.30
2018-08-12T09:42:46.437Z,37.60
2018-08-12T09:45:15.891Z,37.50
2018-08-12T09:47:43.842Z,38.40
2018-08-12T09:50:12.563Z,37.70
2018-08-12T09:52:39.904Z,37.60
2018-08-12T09:55:07.995Z,37.10
2018-08-12T09:57:35.696Z,36.80
2018-08-12T10:00:04.820Z,36.00
2018-08-12T10:02:32.137Z,36.00
2018-08-12T10:04:59.463Z,36.50
2018-08-12T10:07:26.805Z,36.60
2018-08-12T10:09:54.063Z,36.30
2018-08-12T10:12:21.335Z,35.00
2018-08-12T10:14:49.726Z,35.40
2018-08-12T10:17:17.022Z,35.80
2018-08-12T10:19:44.323Z,36.90
2018-08-12T10:22:11.645Z,37.80
2018-08-12T10:24:38.975Z,38.10
2018-08-12T10:27:06.278Z,37.90
2018-08-12T10:29:33.551Z,37.70
2018-08-12T10:32:00.844Z,38.00
2018-08-12T10:34:28.177Z,38.10
2018-08-12T10:36:55.471Z,38.50
2018-08-12T10:39:22.751Z,38.40
2018-08-12T10:41:50.080Z,39.80
2018-08-12T10:44:17.400Z,40.50
2018-08-12T10:46:44.698Z,40.70
2018-08-12T10:49:11.953Z,42.10
2018-08-12T10:51:39.300Z,41.80
2018-08-12T10:54:06.627Z,41.70
2018-08-12T10:56:33.968Z,41.60
2018-08-12T10:59:01.243Z,42.20
2018-08-12T11:01:28.587Z,42.20
2018-08-12T11:03:55.967Z,40.30
2018-08-12T11:06:23.324Z,40.20
2018-08-12T11:08:50.684Z,39.80
2018-08-12T11:11:17.983Z,40.90
2018-08-12T11:13:45.615Z,41.40
2018-08-12T11:18:40.107Z,42.30
2018-08-12T11:21:07.412Z,42.30
2018-08-12T11:23:34.731Z,42.90
2018-08-12T11:26:02.174Z,43.70
2018-08-12T11:28:29.580Z,42.90
2018-08-12T11:30:56.833Z,41.60
2018-08-12T11:33:24.110Z,41.90
2018-08-12T11:35:51.371Z,42.50
2018-08-12T11:38:18.676Z,44.00
2018-08-12T11:40:45.934Z,44.10
2018-08-12T11:43:13.245Z,44.00
2018-08-12T11:45:40.537Z,43.50
2018-08-12T11:48:07.837Z,42.20
2018-08-12T11:50:35.105Z,42.20
2018-08-12T11:53:02.403Z,43.10
2018-08-12T11:55:29.716Z,42.30
2018-08-12T11:57:56.999Z,41.90
2018-08-12T12:00:24.291Z,42.20
2018-08-12T12:02:52.727Z,41.50
2018-08-12T12:05:20.055Z,42.20
2018-08-12T12:07:47.440Z,44.20
2018-08-12T12:10:16.712Z,44.30
2018-08-12T12:12:45.604Z,44.60
2018-08-12T12:15:14.294Z,43.20
2018-08-12T12:17:41.937Z,43.20
2018-08-12T12:20:10.598Z,43.30
2018-08-12T12:22:39.218Z,40.00
2018-08-12T12:25:08.095Z,39.20
2018-08-12T12:27:35.379Z,37.60
2018-08-12T12:30:13.315Z,36.30
2018-08-12T12:32:56.282Z,34.90
2018-08-12T12:35:23.692Z,34.40
2018-08-12T12:38:06.913Z,32.90
2018-08-12T12:43:01.508Z,31.70
2018-08-12T12:45:28.799Z,31.50
2018-08-12T12:47:56.074Z,31.20
2018-08-12T12:50:23.579Z,31.30
2018-08-12T12:52:51.643Z,30.90
2018-08-12T12:55:19.949Z,30.60
2018-08-12T12:57:47.391Z,30.60
2018-08-12T13:00:15.987Z,30.60
2018-08-12T13:02:43.408Z,30.80
2018-08-12T13:05:12.652Z,31.00
2018-08-12T13:07:40.090Z,31.40
2018-08-12T13:10:09.316Z,29.60
2018-08-12T13:12:39.631Z,30.80
2018-08-12T13:15:08.879Z,31.10
2018-08-12T13:17:36.291Z,31.20
2018-08-12T13:20:07.020Z,31.20
2018-08-12T13:22:34.272Z,31.20
2018-08-12T13:25:01.643Z,31.20
2018-08-12T13:27:29.580Z,31.20
2018-08-12T13:29:56.901Z,30.60
2018-08-12T13:32:24.144Z,29.70
2018-08-12T13:34:52.023Z,31.20
2018-08-12T13:37:19.312Z,30.60
2018-08-12T13:39:46.604Z,30.40
2018-08-12T13:42:13.880Z,30.40
2018-08-12T13:44:41.170Z,29.70
2018-08-12T13:47:08.463Z,30.40
2018-08-12T13:49:35.742Z,30.20
2018-08-12T13:52:04.157Z,30.20
2018-08-12T13:54:31.451Z,30.50
2018-08-12T13:56:58.730Z,30.80
2018-08-12T13:59:25.971Z,30.60
2018-08-12T14:01:53.222Z,31.00
2018-08-12T14:04:20.559Z,31.00
2018-08-12T14:06:47.812Z,31.20
2018-08-12T14:09:15.081Z,31.20
2018-08-12T14:11:42.360Z,31.00
2018-08-12T14:14:09.632Z,30.70
2018-08-12T14:16:36.904Z,30.70
2018-08-12T14:19:04.548Z,30.40
2018-08-12T14:21:32.728Z,30.40
2018-08-12T14:24:00.423Z,30.40
2018-08-12T14:26:27.679Z,30.50
2018-08-12T14:28:55.741Z,30.40
2018-08-12T14:31:23.058Z,30.30
2018-08-12T14:33:50.427Z,30.30
2018-08-12T14:36:17.799Z,30.00
2018-08-12T14:38:45.087Z,30.00
2018-08-12T14:41:12.359Z,29.90
2018-08-12T14:43:39.660Z,30.00
2018-08-12T14:46:07.156Z,29.00
2018-08-12T14:48:34.470Z,29.90
2018-08-12T14:51:01.784Z,30.00
2018-08-12T14:53:32.915Z,30.20
2018-08-12T14:56:00.207Z,29.80
2018-08-12T14:58:28.178Z,30.40
2018-08-12T15:00:58.299Z,30.50
2018-08-12T15:03:25.702Z,28.10
2018-08-12T15:05:52.995Z,30.00
2018-08-12T15:08:20.292Z,30.10
2018-08-12T15:10:47.959Z,30.30
2018-08-12T15:13:15.251Z,30.50
2018-08-12T15:15:42.562Z,30.60
2018-08-12T15:18:10.076Z,30.60
2018-08-12T15:20:38.627Z,30.50
2018-08-12T15:23:06.071Z,28.40
2018-08-12T15:25:33.405Z,29.50
2018-08-12T15:28:00.763Z,30.40
2018-08-12T15:30:28.322Z,30.50
2018-08-12T15:32:55.588Z,30.70
2018-08-12T15:35:22.880Z,30.50
2018-08-12T15:37:50.668Z,30.50
2018-08-12T15:40:18.003Z,29.80
2018-08-12T15:42:46.363Z,30.30
2018-08-12T15:45:14.907Z,30.30
2018-08-12T15:47:42.902Z,30.20
2018-08-12T15:50:10.691Z,30.20
2018-08-12T15:52:39.204Z,30.10
2018-08-12T15:55:06.947Z,30.10
2018-08-12T15:57:34.455Z,30.10
2018-08-12T16:00:01.976Z,30.00
2018-08-12T16:02:29.627Z,29.90
2018-08-12T16:04:56.954Z,30.00
2018-08-12T16:07:26.427Z,30.00
2018-08-12T16:09:53.747Z,30.10
2018-08-12T16:12:21.291Z,29.90
2018-08-12T16:14:48.734Z,29.80
2018-08-12T16:17:16.040Z,29.90
2018-08-12T16:19:43.348Z,29.80
2018-08-12T16:22:10.690Z,29.80
2018-08-12T16:24:38.001Z,30.00
2018-08-12T16:27:06.052Z,29.90
2018-08-12T16:29:33.415Z,29.80
2018-08-12T16:32:00.668Z,29.70
2018-08-12T16:34:27.955Z,29.70
2018-08-12T16:36:55.242Z,29.50
2018-08-12T16:39:24.696Z,29.30
2018-08-12T16:44:19.256Z,29.10
2018-08-12T16:46:46.579Z,28.70
2018-08-12T16:49:13.894Z,28.90
2018-08-12T16:51:42.252Z,28.70
2018-08-12T16:54:09.528Z,28.10
2018-08-12T16:56:36.826Z,28.70
2018-08-12T16:59:04.221Z,28.60
2018-08-12T17:01:31.595Z,28.50
2018-08-12T17:03:58.878Z,28.40
2018-08-12T17:06:26.161Z,28.30
2018-08-12T17:08:53.610Z,28.30
2018-08-12T17:11:21.032Z,28.30
2018-08-12T17:13:49.008Z,28.20
2018-08-12T17:16:16.363Z,28.20
2018-08-12T17:18:44.768Z,28.20
2018-08-12T17:21:13.165Z,28.10
2018-08-12T17:23:40.461Z,28.10
2018-08-12T17:26:07.932Z,28.00
2018-08-12T17:28:35.269Z,28.00
2018-08-12T17:31:02.580Z,28.50
2018-08-12T17:33:29.884Z,27.90
2018-08-12T17:35:57.167Z,27.90
2018-08-12T17:38:24.502Z,26.90
2018-08-12T17:43:19.066Z,27.60
2018-08-12T17:45:46.446Z,27.50
2018-08-12T17:48:13.828Z,27.50
2018-08-12T17:50:41.129Z,27.40
2018-08-12T17:53:08.467Z,27.30
2018-08-12T17:55:35.763Z,27.10
2018-08-12T17:58:03.132Z,27.00
2018-08-12T18:02:57.872Z,26.80
2018-08-12T18:05:28.208Z,26.70
2018-08-12T18:07:55.511Z,26.50
2018-08-12T18:10:22.857Z,26.40
2018-08-12T18:12:50.216Z,26.40
2018-08-12T18:15:17.525Z,26.90
2018-08-12T18:17:44.850Z,26.20
2018-08-12T18:20:12.194Z,25.80
2018-08-12T18:22:39.483Z,25.40
2018-08-12T18:25:08.783Z,25.50
2018-08-12T18:27:36.123Z,25.60
2018-08-12T18:30:04.486Z,25.20
2018-08-12T18:32:34.135Z,25.90
2018-08-12T18:35:01.487Z,24.90
2018-08-12T18:37:28.816Z,24.90
2018-08-12T18:39:56.072Z,24.70
2018-08-12T18:42:23.363Z,24.60
2018-08-12T18:44:50.650Z,24.20
2018-08-12T18:47:18.119Z,24.20
2018-08-12T18:49:46.152Z,24.10
2018-08-12T18:52:13.471Z,24.00
2018-08-12T18:54:40.834Z,23.80
2018-08-12T18:57:08.246Z,23.80
2018-08-12T18:59:35.506Z,23.70
2018-08-12T19:02:02.815Z,23.50
2018-08-12T19:04:30.289Z,23.70
2018-08-12T19:07:03.214Z,23.40
2018-08-12T19:09:32.029Z,23.20
2018-08-12T19:12:00.232Z,23.60
2018-08-12T19:14:28.604Z,23.00
2018-08-12T19:21:55.413Z,22.80
2018-08-12T19:24:24.201Z,22.70
2018-08-12T19:26:51.593Z,22.60
2018-08-12T19:29:21.877Z,22.40
2018-08-12T19:31:49.323Z,22.40
2018-08-12T19:34:18.226Z,22.30
2018-08-12T19:36:51.058Z,22.30
2018-08-12T19:41:46.267Z,22.10
2018-08-12T19:44:20.679Z,23.00
2018-08-12T19:46:49.585Z,22.00
2018-08-12T19:49:20.863Z,20.30
2018-08-12T19:51:48.208Z,21.40
2018-08-12T19:54:16.750Z,19.30
2018-08-12T19:59:31.057Z,22.30
2018-08-12T20:01:59.692Z,21.40
2018-08-12T20:04:30.761Z,21.40
2018-08-12T20:06:59.296Z,21.30
2018-08-12T20:09:26.837Z,21.20
2018-08-12T20:11:55.203Z,21.20
2018-08-12T20:14:31.285Z,21.10
2018-08-12T20:17:00.860Z,21.10
2018-08-12T20:19:29.121Z,21.00
2018-08-12T20:21:58.550Z,20.20
2018-08-12T20:24:31.894Z,20.90
2018-08-12T20:27:00.006Z,19.60
2018-08-12T20:29:28.932Z,20.10
2018-08-12T20:31:59.199Z,20.20
2018-08-12T20:34:32.652Z,20.90
2018-08-12T20:37:02.430Z,19.10
2018-08-12T20:39:29.699Z,20.50
2018-08-12T20:42:15.802Z,20.50
2018-08-12T20:44:45.987Z,20.50
2018-08-12T20:47:16.345Z,19.60
2018-08-12T20:49:48.389Z,20.20
2018-08-12T20:52:17.023Z,20.30
2018-08-12T20:54:46.248Z,20.20
2018-08-12T20:57:16.499Z,20.20
2018-08-12T20:59:44.844Z,20.20
2018-08-12T21:02:12.151Z,20.20
2018-08-12T21:04:47.289Z,20.20
2018-08-12T21:07:18.161Z,19.90
2018-08-12T21:09:49.009Z,19.10
2018-08-12T21:12:17.696Z,20.30
2018-08-12T21:14:47.419Z,20.00
2018-08-12T21:17:14.768Z,20.00
2018-08-12T21:19:47.848Z,19.90
2018-08-12T21:22:15.115Z,19.90
2018-08-12T21:24:42.659Z,19.80
2018-08-12T21:27:09.975Z,19.80
2018-08-12T21:29:37.228Z,19.70
2018-08-12T21:32:04.467Z,20.40
2018-08-12T21:34:31.774Z,19.70
2018-08-12T21:36:59.047Z,19.70
2018-08-12T21:39:26.310Z,19.60
2018-08-12T21:41:53.551Z,19.60
2018-08-12T21:44:20.850Z,19.50
2018-08-12T21:46:48.159Z,19.50
2018-08-12T21:49:15.418Z,19.50
2018-08-12T21:51:42.720Z,19.40
2018-08-12T21:54:10.032Z,18.80
2018-08-12T21:56:37.331Z,19.30
2018-08-12T21:59:04.574Z,19.30
2018-08-12T22:01:31.818Z,19.30
2018-08-12T22:03:59.131Z,19.30
2018-08-12T22:06:26.471Z,19.20
2018-08-12T22:08:53.757Z,19.10
2018-08-12T22:11:21.049Z,19.00
2018-08-12T22:13:48.320Z,17.70
2018-08-12T22:16:15.595Z,18.90
2018-08-12T22:18:42.903Z,19.30
2018-08-12T22:21:10.211Z,18.90
2018-08-12T22:23:37.511Z,18.90
2018-08-12T22:26:04.927Z,19.20
2018-08-12T22:28:32.392Z,18.90
2018-08-12T22:30:59.658Z,19.00
2018-08-12T22:33:26.896Z,17.70
2018-08-12T22:35:54.174Z,18.80
2018-08-12T22:38:21.531Z,18.70
2018-08-12T22:40:48.811Z,18.80
2018-08-12T22:43:16.040Z,18.70
2018-08-12T22:45:43.281Z,18.70
2018-08-12T22:48:10.550Z,18.60
2018-08-12T22:50:37.798Z,18.60
2018-08-12T22:53:05.255Z,18.60
2018-08-12T22:55:32.538Z,18.50
2018-08-12T22:57:59.784Z,18.50
2018-08-12T23:00:27.066Z,18.50
2018-08-12T23:02:54.327Z,18.50
2018-08-12T23:05:21.651Z,18.50
2018-08-12T23:07:49.003Z,18.50
2018-08-12T23:10:16.291Z,18.50
2018-08-12T23:12:43.643Z,18.40
2018-08-12T23:15:22.499Z,17.70
2018-08-12T23:17:49.735Z,18.40
2018-08-12T23:20:16.998Z,18.40
2018-08-12T23:22:44.332Z,18.40
2018-08-12T23:25:11.613Z,18.30
2018-08-12T23:27:38.880Z,18.30
2018-08-12T23:30:06.850Z,17.20
2018-08-12T23:32:34.179Z,18.30
2018-08-12T23:35:01.478Z,18.20
2018-08-12T23:37:28.752Z,17.50
2018-08-12T23:39:56.029Z,17.90
2018-08-12T23:42:23.328Z,17.90
2018-08-12T23:44:50.606Z,17.70
2018-08-12T23:47:17.903Z,17.70
2018-08-12T23:49:45.228Z,17.60
2018-08-12T23:52:12.516Z,17.50
2018-08-12T23:54:39.955Z,17.50
2018-08-12T23:57:07.227Z,17.50
2018-08-12T23:59:34.494Z,16.60
